sensor_id;sensor_type;location;lat;lon;timestamp;pressure;altitude;pressure_sealevel;temperature;humidity
22572;BME280;11452;53.368;14.658;2023-07-31T00:02:57;100440.73;;;18.07;64.30
22572;BME280;11452;53.368;14.658;2023-07-31T00:08:03;100449.42;;;18.10;64.50
22572;BME280;11452;53.368;14.658;2023-07-31T00:13:09;100444.14;;;18.09;64.62
22572;BME280;11452;53.368;14.658;2023-07-31T00:18:16;100439.81;;;18.12;64.72
22572;BME280;11452;53.368;14.658;2023-07-31T00:23:22;100439.73;;;18.08;64.71
22572;BME280;11452;53.368;14.658;2023-07-31T00:28:28;100440.45;;;18.10;65.02
22572;BME280;11452;53.368;14.658;2023-07-31T00:33:35;100432.89;;;18.04;64.95
22572;BME280;11452;53.368;14.658;2023-07-31T00:38:41;100429.55;;;18.06;65.27
22572;BME280;11452;53.368;14.658;2023-07-31T00:43:47;100427.06;;;18.08;65.45
22572;BME280;11452;53.368;14.658;2023-07-31T00:48:53;100427.22;;;17.97;65.78
22572;BME280;11452;53.368;14.658;2023-07-31T00:54:00;100438.94;;;17.92;65.78
22572;BME280;11452;53.368;14.658;2023-07-31T00:59:07;100434.25;;;17.94;66.17
22572;BME280;11452;53.368;14.658;2023-07-31T01:04:13;100427.84;;;17.95;66.47
22572;BME280;11452;53.368;14.658;2023-07-31T01:09:48;100418.94;;;17.89;66.53
22572;BME280;11452;53.368;14.658;2023-07-31T01:20:20;100422.69;;;17.82;66.80
22572;BME280;11452;53.368;14.658;2023-07-31T01:31:03;100423.63;;;17.77;67.27
22572;BME280;11452;53.368;14.658;2023-07-31T01:36:11;100414.50;;;17.69;67.57
22572;BME280;11452;53.368;14.658;2023-07-31T01:41:18;100415.08;;;17.72;67.90
22572;BME280;11452;53.368;14.658;2023-07-31T01:46:24;100418.69;;;17.67;67.95
22572;BME280;11452;53.368;14.658;2023-07-31T01:51:29;100411.31;;;17.63;67.89
22572;BME280;11452;53.368;14.658;2023-07-31T01:56:37;100410.68;;;17.56;68.22
22572;BME280;11452;53.368;14.658;2023-07-31T02:01:43;100413.16;;;17.53;68.59
22572;BME280;11452;53.368;14.658;2023-07-31T02:06:49;100415.81;;;17.59;68.79
22572;BME280;11452;53.368;14.658;2023-07-31T02:11:55;100412.89;;;17.56;68.97
22572;BME280;11452;53.368;14.658;2023-07-31T02:17:01;100402.13;;;17.51;69.16
22572;BME280;11452;53.368;14.658;2023-07-31T02:22:06;100398.08;;;17.51;69.32
22572;BME280;11452;53.368;14.658;2023-07-31T02:27:12;100403.75;;;17.48;69.46
22572;BME280;11452;53.368;14.658;2023-07-31T02:32:18;100393.02;;;17.42;69.55
22572;BME280;11452;53.368;14.658;2023-07-31T02:37:24;100394.73;;;17.43;69.82
22572;BME280;11452;53.368;14.658;2023-07-31T02:42:30;100393.88;;;17.43;70.01
22572;BME280;11452;53.368;14.658;2023-07-31T02:47:36;100374.38;;;17.39;70.17
22572;BME280;11452;53.368;14.658;2023-07-31T02:52:42;100375.02;;;17.47;70.39
22572;BME280;11452;53.368;14.658;2023-07-31T02:57:48;100362.22;;;17.49;70.30
22572;BME280;11452;53.368;14.658;2023-07-31T03:02:54;100369.92;;;17.44;70.16
22572;BME280;11452;53.368;14.658;2023-07-31T03:08:00;100365.91;;;17.38;70.57
22572;BME280;11452;53.368;14.658;2023-07-31T03:13:06;100364.70;;;17.37;70.94
22572;BME280;11452;53.368;14.658;2023-07-31T03:18:12;100364.07;;;17.48;71.19
22572;BME280;11452;53.368;14.658;2023-07-31T03:23:18;100367.94;;;17.55;71.28
22572;BME280;11452;53.368;14.658;2023-07-31T03:28:23;100366.89;;;17.62;71.35
22572;BME280;11452;53.368;14.658;2023-07-31T03:33:29;100363.11;;;17.59;71.10
22572;BME280;11452;53.368;14.658;2023-07-31T03:38:35;100361.20;;;17.65;71.43
22572;BME280;11452;53.368;14.658;2023-07-31T03:43:41;100352.95;;;17.67;71.55
22572;BME280;11452;53.368;14.658;2023-07-31T03:48:47;100360.35;;;17.64;71.73
22572;BME280;11452;53.368;14.658;2023-07-31T03:53:53;100358.72;;;17.68;71.87
22572;BME280;11452;53.368;14.658;2023-07-31T03:58:58;100354.97;;;17.74;72.08
22572;BME280;11452;53.368;14.658;2023-07-31T04:04:05;100353.06;;;17.80;72.29
22572;BME280;11452;53.368;14.658;2023-07-31T04:09:10;100353.39;;;17.81;72.25
22572;BME280;11452;53.368;14.658;2023-07-31T04:14:16;100353.55;;;17.80;72.12
22572;BME280;11452;53.368;14.658;2023-07-31T04:19:22;100356.31;;;17.84;72.18
22572;BME280;11452;53.368;14.658;2023-07-31T04:24:28;100356.76;;;17.79;72.49
22572;BME280;11452;53.368;14.658;2023-07-31T04:29:34;100360.31;;;17.80;72.66
22572;BME280;11452;53.368;14.658;2023-07-31T04:34:40;100361.58;;;17.85;72.64
22572;BME280;11452;53.368;14.658;2023-07-31T04:39:46;100356.74;;;17.89;72.70
22572;BME280;11452;53.368;14.658;2023-07-31T04:44:51;100350.06;;;17.93;72.87
22572;BME280;11452;53.368;14.658;2023-07-31T04:49:57;100338.33;;;17.98;72.93
22572;BME280;11452;53.368;14.658;2023-07-31T04:55:04;100338.02;;;18.01;72.93
22572;BME280;11452;53.368;14.658;2023-07-31T05:00:10;100338.44;;;18.06;72.91
22572;BME280;11452;53.368;14.658;2023-07-31T05:05:16;100341.72;;;18.10;73.18
22572;BME280;11452;53.368;14.658;2023-07-31T05:10:22;100345.13;;;18.02;73.14
22572;BME280;11452;53.368;14.658;2023-07-31T05:15:28;100330.39;;;18.00;73.07
22572;BME280;11452;53.368;14.658;2023-07-31T05:20:34;100331.46;;;18.04;73.06
22572;BME280;11452;53.368;14.658;2023-07-31T05:25:40;100335.03;;;18.14;73.60
22572;BME280;11452;53.368;14.658;2023-07-31T05:30:46;100327.73;;;18.24;73.91
22572;BME280;11452;53.368;14.658;2023-07-31T05:35:52;100319.00;;;18.40;73.88
22572;BME280;11452;53.368;14.658;2023-07-31T05:40:58;100316.16;;;18.41;72.96
22572;BME280;11452;53.368;14.658;2023-07-31T05:46:04;100307.59;;;18.46;73.62
22572;BME280;11452;53.368;14.658;2023-07-31T05:51:11;100301.80;;;18.64;73.63
22572;BME280;11452;53.368;14.658;2023-07-31T05:56:17;100288.23;;;18.74;73.41
22572;BME280;11452;53.368;14.658;2023-07-31T06:01:23;100302.12;;;18.88;73.43
22572;BME280;11452;53.368;14.658;2023-07-31T06:06:29;100292.84;;;18.91;72.87
22572;BME280;11452;53.368;14.658;2023-07-31T06:11:35;100294.53;;;19.06;73.29
22572;BME280;11452;53.368;14.658;2023-07-31T06:16:43;100302.09;;;19.16;72.69
22572;BME280;11452;53.368;14.658;2023-07-31T06:21:49;100296.12;;;19.26;72.67
22572;BME280;11452;53.368;14.658;2023-07-31T06:26:55;100283.08;;;19.25;72.13
22572;BME280;11452;53.368;14.658;2023-07-31T06:32:02;100288.91;;;19.48;72.67
22572;BME280;11452;53.368;14.658;2023-07-31T06:37:08;100284.27;;;19.58;71.75
22572;BME280;11452;53.368;14.658;2023-07-31T06:42:16;100296.23;;;19.69;71.35
22572;BME280;11452;53.368;14.658;2023-07-31T06:47:22;100294.52;;;19.68;70.98
22572;BME280;11452;53.368;14.658;2023-07-31T06:52:28;100286.02;;;20.03;71.14
22572;BME280;11452;53.368;14.658;2023-07-31T06:57:34;100287.61;;;20.14;70.01
22572;BME280;11452;53.368;14.658;2023-07-31T07:02:40;100286.01;;;20.29;69.88
22572;BME280;11452;53.368;14.658;2023-07-31T07:07:48;100282.16;;;20.35;69.54
22572;BME280;11452;53.368;14.658;2023-07-31T07:12:55;100275.20;;;20.63;69.85
22572;BME280;11452;53.368;14.658;2023-07-31T07:18:01;100272.62;;;20.91;69.21
22572;BME280;11452;53.368;14.658;2023-07-31T07:23:08;100274.02;;;21.03;68.13
22572;BME280;11452;53.368;14.658;2023-07-31T07:28:15;100267.86;;;20.97;66.81
22572;BME280;11452;53.368;14.658;2023-07-31T07:33:21;100269.17;;;21.23;67.36
22572;BME280;11452;53.368;14.658;2023-07-31T07:38:47;100265.63;;;21.31;66.96
22572;BME280;11452;53.368;14.658;2023-07-31T07:43:54;100260.73;;;21.51;66.21
22572;BME280;11452;53.368;14.658;2023-07-31T07:49:00;100260.91;;;21.65;65.33
22572;BME280;11452;53.368;14.658;2023-07-31T07:54:06;100260.57;;;21.52;65.11
22572;BME280;11452;53.368;14.658;2023-07-31T07:59:12;100258.02;;;21.63;65.33
22572;BME280;11452;53.368;14.658;2023-07-31T08:04:18;100249.34;;;21.80;65.05
22572;BME280;11452;53.368;14.658;2023-07-31T08:09:24;100252.89;;;21.56;64.02
22572;BME280;11452;53.368;14.658;2023-07-31T08:14:30;100251.22;;;21.63;64.02
22572;BME280;11452;53.368;14.658;2023-07-31T08:19:36;100253.42;;;21.63;64.37
22572;BME280;11452;53.368;14.658;2023-07-31T08:24:42;100243.72;;;21.73;64.68
22572;BME280;11452;53.368;14.658;2023-07-31T08:29:48;100240.31;;;21.95;64.22
22572;BME280;11452;53.368;14.658;2023-07-31T08:34:54;100238.97;;;21.87;63.56
22572;BME280;11452;53.368;14.658;2023-07-31T08:40:00;100237.28;;;21.66;63.11
22572;BME280;11452;53.368;14.658;2023-07-31T08:45:06;100243.55;;;21.58;63.35
22572;BME280;11452;53.368;14.658;2023-07-31T08:50:18;100234.71;;;21.81;63.93
22572;BME280;11452;53.368;14.658;2023-07-31T08:55:27;100234.70;;;21.76;63.50
22572;BME280;11452;53.368;14.658;2023-07-31T09:00:36;100231.16;;;21.68;62.99
22572;BME280;11452;53.368;14.658;2023-07-31T09:05:45;100222.47;;;21.81;63.59
22572;BME280;11452;53.368;14.658;2023-07-31T09:10:53;100216.32;;;21.99;63.59
22572;BME280;11452;53.368;14.658;2023-07-31T09:16:01;100208.99;;;22.24;62.95
22572;BME280;11452;53.368;14.658;2023-07-31T09:21:07;100210.36;;;22.11;63.27
22572;BME280;11452;53.368;14.658;2023-07-31T09:26:35;100210.83;;;23.09;60.61
22572;BME280;11452;53.368;14.658;2023-07-31T09:31:43;100221.74;;;22.70;61.63
22572;BME280;11452;53.368;14.658;2023-07-31T09:36:50;100213.41;;;22.80;62.30
22572;BME280;11452;53.368;14.658;2023-07-31T09:42:00;100198.83;;;22.96;60.76
22572;BME280;11452;53.368;14.658;2023-07-31T09:47:05;100204.22;;;22.77;60.80
22572;BME280;11452;53.368;14.658;2023-07-31T09:52:20;100204.22;;;23.04;60.85
22572;BME280;11452;53.368;14.658;2023-07-31T09:57:28;100198.60;;;23.28;60.18
22572;BME280;11452;53.368;14.658;2023-07-31T10:02:34;100187.66;;;23.09;59.39
22572;BME280;11452;53.368;14.658;2023-07-31T10:07:43;100176.83;;;23.20;58.61
22572;BME280;11452;53.368;14.658;2023-07-31T10:12:52;100169.46;;;23.02;58.16
22572;BME280;11452;53.368;14.658;2023-07-31T10:17:59;100168.22;;;23.12;58.90
22572;BME280;11452;53.368;14.658;2023-07-31T10:23:06;100168.31;;;23.42;58.47
22572;BME280;11452;53.368;14.658;2023-07-31T10:28:13;100167.25;;;23.47;57.57
22572;BME280;11452;53.368;14.658;2023-07-31T10:33:20;100157.67;;;23.32;57.38
22572;BME280;11452;53.368;14.658;2023-07-31T10:38:26;100146.82;;;23.66;58.12
22572;BME280;11452;53.368;14.658;2023-07-31T10:43:33;100158.20;;;24.03;57.22
22572;BME280;11452;53.368;14.658;2023-07-31T10:48:58;100153.74;;;23.91;56.84
22572;BME280;11452;53.368;14.658;2023-07-31T10:54:20;100150.34;;;24.04;56.72
22572;BME280;11452;53.368;14.658;2023-07-31T10:59:34;100146.91;;;24.06;55.73
22572;BME280;11452;53.368;14.658;2023-07-31T11:04:37;100136.04;;;24.31;56.56
22572;BME280;11452;53.368;14.658;2023-07-31T11:09:45;100129.49;;;24.36;56.02
22572;BME280;11452;53.368;14.658;2023-07-31T11:14:57;100115.64;;;24.38;55.58
22572;BME280;11452;53.368;14.658;2023-07-31T11:20:04;100127.19;;;24.44;55.29
22572;BME280;11452;53.368;14.658;2023-07-31T11:25:12;100127.80;;;24.35;54.89
22572;BME280;11452;53.368;14.658;2023-07-31T11:30:20;100131.94;;;24.02;54.42
22572;BME280;11452;53.368;14.658;2023-07-31T11:35:26;100128.09;;;23.40;55.69
22572;BME280;11452;53.368;14.658;2023-07-31T11:40:43;100113.26;;;23.61;56.71
22572;BME280;11452;53.368;14.658;2023-07-31T11:45:58;100116.87;;;23.58;57.42
22572;BME280;11452;53.368;14.658;2023-07-31T11:51:01;100115.59;;;23.83;57.88
22572;BME280;11452;53.368;14.658;2023-07-31T11:56:10;100106.19;;;23.86;57.01
22572;BME280;11452;53.368;14.658;2023-07-31T12:01:20;100113.11;;;23.59;57.00
22572;BME280;11452;53.368;14.658;2023-07-31T12:06:34;100087.98;;;23.44;58.07
22572;BME280;11452;53.368;14.658;2023-07-31T12:11:47;100076.90;;;23.79;58.58
22572;BME280;11452;53.368;14.658;2023-07-31T12:17:04;100077.89;;;23.68;56.81
22572;BME280;11452;53.368;14.658;2023-07-31T12:22:12;100083.81;;;23.38;57.00
22572;BME280;11452;53.368;14.658;2023-07-31T12:27:18;100092.28;;;23.01;57.34
22572;BME280;11452;53.368;14.658;2023-07-31T12:32:25;100080.92;;;22.98;59.80
22572;BME280;11452;53.368;14.658;2023-07-31T12:37:33;100081.09;;;22.96;59.95
22572;BME280;11452;53.368;14.658;2023-07-31T12:42:42;100080.22;;;22.77;60.61
22572;BME280;11452;53.368;14.658;2023-07-31T12:47:48;100072.45;;;22.62;60.80
22572;BME280;11452;53.368;14.658;2023-07-31T12:52:55;100077.90;;;22.31;61.19
22572;BME280;11452;53.368;14.658;2023-07-31T12:58:01;100057.91;;;22.11;62.40
22572;BME280;11452;53.368;14.658;2023-07-31T13:03:07;100057.62;;;21.94;62.93
22572;BME280;11452;53.368;14.658;2023-07-31T13:08:13;100054.34;;;21.60;63.54
22572;BME280;11452;53.368;14.658;2023-07-31T13:13:20;100046.05;;;21.49;64.94
22572;BME280;11452;53.368;14.658;2023-07-31T13:18:26;100049.69;;;21.81;66.60
22572;BME280;11452;53.368;14.658;2023-07-31T13:23:33;100031.94;;;22.05;67.07
22572;BME280;11452;53.368;14.658;2023-07-31T13:28:38;100034.33;;;22.00;67.25
22572;BME280;11452;53.368;14.658;2023-07-31T13:33:44;100033.65;;;22.02;66.94
22572;BME280;11452;53.368;14.658;2023-07-31T13:38:50;100026.49;;;22.05;67.61
22572;BME280;11452;53.368;14.658;2023-07-31T13:43:58;100006.77;;;22.30;67.15
22572;BME280;11452;53.368;14.658;2023-07-31T13:49:03;99999.02;;;22.19;66.34
22572;BME280;11452;53.368;14.658;2023-07-31T13:54:09;99989.12;;;22.67;66.97
22572;BME280;11452;53.368;14.658;2023-07-31T13:59:16;99995.66;;;22.62;65.59
22572;BME280;11452;53.368;14.658;2023-07-31T14:04:22;99978.63;;;22.83;65.08
22572;BME280;11452;53.368;14.658;2023-07-31T14:09:28;99969.02;;;22.68;63.29
22572;BME280;11452;53.368;14.658;2023-07-31T14:14:34;99989.23;;;22.55;63.61
22572;BME280;11452;53.368;14.658;2023-07-31T14:19:40;100008.05;;;22.15;64.07
22572;BME280;11452;53.368;14.658;2023-07-31T14:24:46;100009.48;;;21.95;65.69
22572;BME280;11452;53.368;14.658;2023-07-31T14:29:51;100004.05;;;22.03;67.16
22572;BME280;11452;53.368;14.658;2023-07-31T14:34:57;100000.30;;;22.04;68.20
22572;BME280;11452;53.368;14.658;2023-07-31T14:40:03;99991.53;;;22.17;68.64
22572;BME280;11452;53.368;14.658;2023-07-31T14:45:09;99999.28;;;22.28;68.34
22572;BME280;11452;53.368;14.658;2023-07-31T14:50:16;99993.42;;;22.12;68.43
22572;BME280;11452;53.368;14.658;2023-07-31T14:55:23;99996.89;;;21.98;68.65
22572;BME280;11452;53.368;14.658;2023-07-31T15:00:29;99991.06;;;22.09;70.01
22572;BME280;11452;53.368;14.658;2023-07-31T15:05:35;99971.89;;;21.94;69.24
22572;BME280;11452;53.368;14.658;2023-07-31T15:10:41;99979.80;;;21.81;68.95
22572;BME280;11452;53.368;14.658;2023-07-31T15:15:46;99974.70;;;21.78;69.35
22572;BME280;11452;53.368;14.658;2023-07-31T15:20:53;99973.66;;;21.83;69.06
22572;BME280;11452;53.368;14.658;2023-07-31T15:25:59;99964.05;;;21.68;68.77
22572;BME280;11452;53.368;14.658;2023-07-31T15:31:04;99969.66;;;21.67;69.25
22572;BME280;11452;53.368;14.658;2023-07-31T15:36:10;99956.24;;;21.61;69.05
22572;BME280;11452;53.368;14.658;2023-07-31T15:41:16;99950.14;;;21.55;69.05
22572;BME280;11452;53.368;14.658;2023-07-31T15:46:24;99951.33;;;21.57;69.23
22572;BME280;11452;53.368;14.658;2023-07-31T15:51:30;99946.05;;;21.59;69.47
22572;BME280;11452;53.368;14.658;2023-07-31T15:56:35;99939.91;;;21.69;69.71
22572;BME280;11452;53.368;14.658;2023-07-31T16:01:42;99928.30;;;21.71;69.72
22572;BME280;11452;53.368;14.658;2023-07-31T16:06:48;99923.20;;;21.72;69.79
22572;BME280;11452;53.368;14.658;2023-07-31T16:11:54;99928.94;;;21.82;70.06
22572;BME280;11452;53.368;14.658;2023-07-31T16:17:00;99919.45;;;21.73;69.50
22572;BME280;11452;53.368;14.658;2023-07-31T16:22:09;99923.58;;;21.69;69.95
22572;BME280;11452;53.368;14.658;2023-07-31T16:27:15;99921.89;;;21.64;70.01
22572;BME280;11452;53.368;14.658;2023-07-31T16:32:21;99917.98;;;21.63;70.21
22572;BME280;11452;53.368;14.658;2023-07-31T16:37:27;99938.98;;;21.46;70.13
22572;BME280;11452;53.368;14.658;2023-07-31T16:42:34;99933.38;;;21.39;70.59
22572;BME280;11452;53.368;14.658;2023-07-31T16:47:41;99934.91;;;21.38;70.87
22572;BME280;11452;53.368;14.658;2023-07-31T16:52:50;99930.33;;;21.34;70.88
22572;BME280;11452;53.368;14.658;2023-07-31T16:57:56;99913.52;;;21.35;71.16
22572;BME280;11452;53.368;14.658;2023-07-31T17:03:02;99910.09;;;21.41;71.26
22572;BME280;11452;53.368;14.658;2023-07-31T17:08:11;99912.81;;;21.41;71.03
22572;BME280;11452;53.368;14.658;2023-07-31T17:13:18;99904.48;;;21.42;71.43
22572;BME280;11452;53.368;14.658;2023-07-31T17:18:24;99895.81;;;21.43;71.28
22572;BME280;11452;53.368;14.658;2023-07-31T17:23:30;99894.45;;;21.43;71.42
22572;BME280;11452;53.368;14.658;2023-07-31T17:28:36;99901.70;;;21.55;71.56
22572;BME280;11452;53.368;14.658;2023-07-31T17:33:42;99888.66;;;21.50;71.48
22572;BME280;11452;53.368;14.658;2023-07-31T17:38:48;99884.19;;;21.57;71.09
22572;BME280;11452;53.368;14.658;2023-07-31T17:43:54;99878.22;;;21.62;71.10
22572;BME280;11452;53.368;14.658;2023-07-31T17:49:00;99887.77;;;21.54;70.27
22572;BME280;11452;53.368;14.658;2023-07-31T17:54:07;99890.73;;;21.36;69.81
22572;BME280;11452;53.368;14.658;2023-07-31T17:59:13;99887.93;;;21.13;70.63
22572;BME280;11452;53.368;14.658;2023-07-31T18:04:20;99877.36;;;21.18;70.86
22572;BME280;11452;53.368;14.658;2023-07-31T18:09:26;99882.83;;;21.14;71.37
22572;BME280;11452;53.368;14.658;2023-07-31T18:14:32;99877.57;;;21.13;71.75
22572;BME280;11452;53.368;14.658;2023-07-31T18:19:39;99877.75;;;21.07;72.05
22572;BME280;11452;53.368;14.658;2023-07-31T18:24:45;99888.97;;;21.00;72.53
22572;BME280;11452;53.368;14.658;2023-07-31T18:29:50;99901.23;;;20.84;73.29
22572;BME280;11452;53.368;14.658;2023-07-31T18:34:56;99904.33;;;20.64;74.25
22572;BME280;11452;53.368;14.658;2023-07-31T18:40:03;99889.89;;;20.60;74.98
22572;BME280;11452;53.368;14.658;2023-07-31T18:45:09;99873.94;;;20.61;75.35
22572;BME280;11452;53.368;14.658;2023-07-31T18:50:15;99876.01;;;20.55;75.81
22572;BME280;11452;53.368;14.658;2023-07-31T18:55:21;99865.31;;;20.49;76.12
22572;BME280;11452;53.368;14.658;2023-07-31T19:00:27;99873.27;;;20.30;76.14
22572;BME280;11452;53.368;14.658;2023-07-31T19:05:33;99860.90;;;20.20;76.62
22572;BME280;11452;53.368;14.658;2023-07-31T19:10:38;99854.77;;;20.05;77.24
22572;BME280;11452;53.368;14.658;2023-07-31T19:15:46;99851.91;;;19.99;77.83
22572;BME280;11452;53.368;14.658;2023-07-31T19:20:53;99845.62;;;19.94;78.21
22572;BME280;11452;53.368;14.658;2023-07-31T19:25:59;99844.77;;;19.94;78.81
22572;BME280;11452;53.368;14.658;2023-07-31T19:31:05;99848.83;;;19.90;79.04
22572;BME280;11452;53.368;14.658;2023-07-31T19:36:11;99842.38;;;19.87;79.55
22572;BME280;11452;53.368;14.658;2023-07-31T19:41:17;99836.30;;;19.85;79.61
22572;BME280;11452;53.368;14.658;2023-07-31T19:46:23;99831.55;;;19.83;80.09
22572;BME280;11452;53.368;14.658;2023-07-31T19:51:29;99820.19;;;19.79;80.39
22572;BME280;11452;53.368;14.658;2023-07-31T19:56:35;99817.98;;;19.79;80.56
22572;BME280;11452;53.368;14.658;2023-07-31T20:01:42;99812.86;;;19.67;80.93
22572;BME280;11452;53.368;14.658;2023-07-31T20:06:48;99814.92;;;19.65;81.28
22572;BME280;11452;53.368;14.658;2023-07-31T20:11:54;99808.80;;;19.67;81.54
22572;BME280;11452;53.368;14.658;2023-07-31T20:17:00;99802.52;;;19.67;81.94
22572;BME280;11452;53.368;14.658;2023-07-31T20:22:06;99801.52;;;19.60;81.98
22572;BME280;11452;53.368;14.658;2023-07-31T20:27:15;99797.28;;;19.61;82.42
22572;BME280;11452;53.368;14.658;2023-07-31T20:32:21;99800.14;;;19.56;82.82
22572;BME280;11452;53.368;14.658;2023-07-31T20:37:27;99797.77;;;19.53;82.97
22572;BME280;11452;53.368;14.658;2023-07-31T20:42:33;99784.06;;;19.58;83.33
22572;BME280;11452;53.368;14.658;2023-07-31T20:47:39;99780.66;;;19.56;83.61
22572;BME280;11452;53.368;14.658;2023-07-31T20:52:46;99776.25;;;19.55;83.49
22572;BME280;11452;53.368;14.658;2023-07-31T20:57:52;99776.59;;;19.56;83.94
22572;BME280;11452;53.368;14.658;2023-07-31T21:02:59;99760.69;;;19.61;84.29
22572;BME280;11452;53.368;14.658;2023-07-31T21:08:05;99750.18;;;19.62;84.18
22572;BME280;11452;53.368;14.658;2023-07-31T21:13:11;99743.22;;;19.56;84.13
22572;BME280;11452;53.368;14.658;2023-07-31T21:18:17;99735.94;;;19.56;84.43
22572;BME280;11452;53.368;14.658;2023-07-31T21:23:23;99726.45;;;19.56;84.43
22572;BME280;11452;53.368;14.658;2023-07-31T21:28:29;99731.86;;;19.52;84.63
22572;BME280;11452;53.368;14.658;2023-07-31T21:33:35;99726.42;;;19.48;84.55
22572;BME280;11452;53.368;14.658;2023-07-31T21:38:40;99709.66;;;19.53;84.73
22572;BME280;11452;53.368;14.658;2023-07-31T21:43:47;99701.20;;;19.52;84.90
22572;BME280;11452;53.368;14.658;2023-07-31T21:48:53;99691.86;;;19.46;84.84
22572;BME280;11452;53.368;14.658;2023-07-31T21:53:59;99688.48;;;19.48;84.93
22572;BME280;11452;53.368;14.658;2023-07-31T21:59:05;99682.03;;;19.45;84.94
22572;BME280;11452;53.368;14.658;2023-07-31T22:04:10;99676.78;;;19.44;85.13
22572;BME280;11452;53.368;14.658;2023-07-31T22:09:16;99680.51;;;19.43;85.04
22572;BME280;11452;53.368;14.658;2023-07-31T22:14:22;99685.25;;;19.41;85.08
22572;BME280;11452;53.368;14.658;2023-07-31T22:19:27;99683.72;;;19.38;85.06
22572;BME280;11452;53.368;14.658;2023-07-31T22:24:33;99680.50;;;19.38;85.25
22572;BME280;11452;53.368;14.658;2023-07-31T22:29:40;99683.38;;;19.41;85.25
22572;BME280;11452;53.368;14.658;2023-07-31T22:34:46;99680.33;;;19.36;85.07
22572;BME280;11452;53.368;14.658;2023-07-31T22:39:52;99672.69;;;19.31;85.16
22572;BME280;11452;53.368;14.658;2023-07-31T22:44:57;99668.80;;;19.30;85.10
22572;BME280;11452;53.368;14.658;2023-07-31T22:50:04;99670.34;;;19.28;85.10
22572;BME280;11452;53.368;14.658;2023-07-31T22:55:13;99653.58;;;19.29;85.13
22572;BME280;11452;53.368;14.658;2023-07-31T23:00:19;99648.16;;;19.29;85.22
22572;BME280;11452;53.368;14.658;2023-07-31T23:05:25;99635.13;;;19.28;85.22
22572;BME280;11452;53.368;14.658;2023-07-31T23:10:31;99622.73;;;19.30;85.20
22572;BME280;11452;53.368;14.658;2023-07-31T23:15:37;99622.73;;;19.30;84.93
22572;BME280;11452;53.368;14.658;2023-07-31T23:20:51;99619.00;;;19.31;85.00
22572;BME280;11452;53.368;14.658;2023-07-31T23:25:57;99608.67;;;19.30;84.99
22572;BME280;11452;53.368;14.658;2023-07-31T23:31:04;99590.55;;;19.31;84.92
22572;BME280;11452;53.368;14.658;2023-07-31T23:36:11;99597.33;;;19.31;85.00
22572;BME280;11452;53.368;14.658;2023-07-31T23:41:17;99590.89;;;19.32;85.06
22572;BME280;11452;53.368;14.658;2023-07-31T23:46:23;99582.09;;;19.34;84.99
22572;BME280;11452;53.368;14.658;2023-07-31T23:51:35;99581.41;;;19.32;84.66
22572;BME280;11452;53.368;14.658;2023-07-31T23:56:42;99574.81;;;19.34;84.74
